sensor_id;sensor_type;location;lat;lon;timestamp;pressure;altitude;pressure_sealevel;temperature;humidity
31346;BME280;21711;49.708;18.568;2023-01-06T00:01:34;97703.72;;;5.18;100.00
31346;BME280;21711;49.708;18.568;2023-01-06T00:04:03;97698.81;;;5.22;100.00
31346;BME280;21711;49.708;18.568;2023-01-06T00:06:31;97694.94;;;5.24;100.00
31346;BME280;21711;49.708;18.568;2023-01-06T00:09:02;97707.63;;;5.39;100.00
31346;BME280;21711;49.708;18.568;2023-01-06T00:11:31;97713.06;;;5.26;100.00
31346;BME280;21711;49.708;18.568;2023-01-06T00:13:59;97716.28;;;5.40;100.00
31346;BME280;21711;49.708;18.568;2023-01-06T00:16:26;97733.50;;;5.48;100.00
31346;BME280;21711;49.708;18.568;2023-01-06T00:18:58;97730.72;;;5.07;100.00
31346;BME280;21711;49.708;18.568;2023-01-06T00:21:26;97736.09;;;5.12;100.00
31346;BME280;21711;49.708;18.568;2023-01-06T00:23:54;97735.38;;;5.05;100.00
31346;BME280;21711;49.708;18.568;2023-01-06T00:26:22;97731.19;;;5.16;100.00
31346;BME280;21711;49.708;18.568;2023-01-06T00:28:54;97746.41;;;4.83;100.00
31346;BME280;21711;49.708;18.568;2023-01-06T00:31:24;97739.31;;;4.83;100.00
31346;BME280;21711;49.708;18.568;2023-01-06T00:33:55;97745.38;;;4.84;100.00
31346;BME280;21711;49.708;18.568;2023-01-06T00:36:23;97742.09;;;4.70;100.00
31346;BME280;21711;49.708;18.568;2023-01-06T00:38:50;97747.69;;;4.62;100.00
31346;BME280;21711;49.708;18.568;2023-01-06T00:41:18;97742.69;;;4.72;100.00
31346;BME280;21711;49.708;18.568;2023-01-06T00:44:05;97742.56;;;4.67;100.00
31346;BME280;21711;49.708;18.568;2023-01-06T00:46:33;97751.75;;;4.57;100.00
31346;BME280;21711;49.708;18.568;2023-01-06T00:49:02;97761.78;;;4.60;100.00
31346;BME280;21711;49.708;18.568;2023-01-06T00:51:35;97763.84;;;4.58;100.00
31346;BME280;21711;49.708;18.568;2023-01-06T00:54:05;97772.19;;;4.48;100.00
31346;BME280;21711;49.708;18.568;2023-01-06T00:56:39;97778.59;;;4.53;100.00
31346;BME280;21711;49.708;18.568;2023-01-06T00:59:07;97778.09;;;4.44;100.00
31346;BME280;21711;49.708;18.568;2023-01-06T01:01:35;97774.47;;;4.26;100.00
31346;BME280;21711;49.708;18.568;2023-01-06T01:04:03;97774.81;;;4.30;100.00
31346;BME280;21711;49.708;18.568;2023-01-06T01:06:31;97788.88;;;4.36;100.00
31346;BME280;21711;49.708;18.568;2023-01-06T01:08:59;97784.53;;;4.29;100.00
31346;BME280;21711;49.708;18.568;2023-01-06T01:11:27;97791.22;;;4.25;100.00
31346;BME280;21711;49.708;18.568;2023-01-06T01:14:16;97785.09;;;4.13;100.00
31346;BME280;21711;49.708;18.568;2023-01-06T01:16:44;97788.88;;;4.17;100.00
31346;BME280;21711;49.708;18.568;2023-01-06T01:19:13;97790.47;;;4.18;100.00
31346;BME280;21711;49.708;18.568;2023-01-06T01:21:40;97788.66;;;4.18;100.00
31346;BME280;21711;49.708;18.568;2023-01-06T01:24:08;97790.78;;;4.10;100.00
31346;BME280;21711;49.708;18.568;2023-01-06T01:26:35;97784.00;;;4.20;100.00
31346;BME280;21711;49.708;18.568;2023-01-06T01:29:03;97785.09;;;4.13;100.00
31346;BME280;21711;49.708;18.568;2023-01-06T01:31:31;97785.44;;;3.98;100.00
31346;BME280;21711;49.708;18.568;2023-01-06T01:33:58;97793.09;;;3.99;100.00
31346;BME280;21711;49.708;18.568;2023-01-06T01:36:28;97798.50;;;4.23;100.00
31346;BME280;21711;49.708;18.568;2023-01-06T01:38:56;97799.94;;;4.19;100.00
31346;BME280;21711;49.708;18.568;2023-01-06T01:41:27;97805.19;;;4.19;100.00
31346;BME280;21711;49.708;18.568;2023-01-06T01:47:09;97809.31;;;4.27;100.00
31346;BME280;21711;49.708;18.568;2023-01-06T01:49:39;97807.13;;;4.24;100.00
31346;BME280;21711;49.708;18.568;2023-01-06T01:52:11;97811.72;;;4.28;100.00
31346;BME280;21711;49.708;18.568;2023-01-06T01:54:40;97814.25;;;4.16;100.00
31346;BME280;21711;49.708;18.568;2023-01-06T01:57:18;97817.72;;;4.10;100.00
31346;BME280;21711;49.708;18.568;2023-01-06T01:59:47;97829.38;;;4.14;100.00
31346;BME280;21711;49.708;18.568;2023-01-06T02:02:16;97818.72;;;3.90;100.00
31346;BME280;21711;49.708;18.568;2023-01-06T02:04:53;97821.53;;;4.14;100.00
31346;BME280;21711;49.708;18.568;2023-01-06T02:07:23;97821.50;;;3.95;100.00
31346;BME280;21711;49.708;18.568;2023-01-06T02:10:13;97821.66;;;4.01;100.00
31346;BME280;21711;49.708;18.568;2023-01-06T02:12:42;97825.88;;;4.02;100.00
31346;BME280;21711;49.708;18.568;2023-01-06T02:15:31;97825.91;;;3.76;100.00
31346;BME280;21711;49.708;18.568;2023-01-06T02:23:46;97825.69;;;3.97;100.00
31346;BME280;21711;49.708;18.568;2023-01-06T02:27:15;97819.47;;;3.98;100.00
31346;BME280;21711;49.708;18.568;2023-01-06T02:33:37;97812.28;;;4.12;100.00
31346;BME280;21711;49.708;18.568;2023-01-06T02:36:44;97812.03;;;3.94;100.00
31346;BME280;21711;49.708;18.568;2023-01-06T02:45:43;97821.69;;;3.94;100.00
31346;BME280;21711;49.708;18.568;2023-01-06T02:49:22;97821.28;;;3.97;100.00
31346;BME280;21711;49.708;18.568;2023-01-06T02:51:20;97823.69;;;3.99;100.00
31346;BME280;21711;49.708;18.568;2023-01-06T02:56:41;97819.75;;;3.89;100.00
31346;BME280;21711;49.708;18.568;2023-01-06T02:59:19;97832.50;;;4.04;100.00
31346;BME280;21711;49.708;18.568;2023-01-06T03:01:50;97820.56;;;4.08;100.00
31346;BME280;21711;49.708;18.568;2023-01-06T03:04:32;97827.47;;;4.03;100.00
31346;BME280;21711;49.708;18.568;2023-01-06T03:07:03;97827.69;;;4.01;100.00
31346;BME280;21711;49.708;18.568;2023-01-06T03:09:36;97833.28;;;4.05;100.00
31346;BME280;21711;49.708;18.568;2023-01-06T03:15:10;97836.78;;;3.99;100.00
31346;BME280;21711;49.708;18.568;2023-01-06T03:17:37;97829.44;;;3.82;100.00
31346;BME280;21711;49.708;18.568;2023-01-06T03:20:06;97836.69;;;3.87;100.00
31346;BME280;21711;49.708;18.568;2023-01-06T03:22:34;97838.13;;;3.83;100.00
31346;BME280;21711;49.708;18.568;2023-01-06T03:25:07;97827.53;;;3.96;100.00
31346;BME280;21711;49.708;18.568;2023-01-06T03:27:35;97834.72;;;4.01;100.00
31346;BME280;21711;49.708;18.568;2023-01-06T03:30:08;97827.75;;;3.94;100.00
31346;BME280;21711;49.708;18.568;2023-01-06T03:32:58;97824.25;;;4.01;100.00
31346;BME280;21711;49.708;18.568;2023-01-06T03:44:46;97824.28;;;3.75;100.00
31346;BME280;21711;49.708;18.568;2023-01-06T03:50:18;97830.16;;;3.71;100.00
31346;BME280;21711;49.708;18.568;2023-01-06T03:53:38;97840.16;;;3.80;100.00
31346;BME280;21711;49.708;18.568;2023-01-06T03:56:18;97840.72;;;3.83;100.00
31346;BME280;21711;49.708;18.568;2023-01-06T03:58:52;97837.59;;;3.74;100.00
31346;BME280;21711;49.708;18.568;2023-01-06T04:01:22;97838.06;;;3.64;100.00
31346;BME280;21711;49.708;18.568;2023-01-06T04:03:55;97829.06;;;3.53;100.00
31346;BME280;21711;49.708;18.568;2023-01-06T04:06:26;97824.28;;;3.75;100.00
31346;BME280;21711;49.708;18.568;2023-01-06T04:08:54;97822.31;;;3.71;100.00
31346;BME280;21711;49.708;18.568;2023-01-06T04:11:21;97827.19;;;3.67;100.00
31346;BME280;21711;49.708;18.568;2023-01-06T04:14:09;97830.63;;;3.61;100.00
31346;BME280;21711;49.708;18.568;2023-01-06T04:16:37;97827.97;;;3.67;100.00
31346;BME280;21711;49.708;18.568;2023-01-06T04:19:05;97831.19;;;3.95;100.00
31346;BME280;21711;49.708;18.568;2023-01-06T04:21:32;97827.31;;;3.98;100.00
31346;BME280;21711;49.708;18.568;2023-01-06T04:23:59;97836.50;;;4.07;100.00
31346;BME280;21711;49.708;18.568;2023-01-06T04:26:27;97835.47;;;4.08;100.00
31346;BME280;21711;49.708;18.568;2023-01-06T04:28:54;97838.88;;;4.08;100.00
31346;BME280;21711;49.708;18.568;2023-01-06T04:31:22;97843.91;;;4.10;100.00
31346;BME280;21711;49.708;18.568;2023-01-06T04:33:51;97841.88;;;4.12;100.00
31346;BME280;21711;49.708;18.568;2023-01-06T04:36:19;97845.50;;;3.92;100.00
31346;BME280;21711;49.708;18.568;2023-01-06T04:38:50;97849.44;;;4.02;100.00
31346;BME280;21711;49.708;18.568;2023-01-06T04:41:17;97853.28;;;3.99;100.00
31346;BME280;21711;49.708;18.568;2023-01-06T04:43:44;97852.16;;;3.88;100.00
31346;BME280;21711;49.708;18.568;2023-01-06T04:46:12;97845.97;;;3.83;100.00
31346;BME280;21711;49.708;18.568;2023-01-06T04:48:39;97847.34;;;3.85;100.00
31346;BME280;21711;49.708;18.568;2023-01-06T04:51:08;97838.22;;;3.94;100.00
31346;BME280;21711;49.708;18.568;2023-01-06T04:53:38;97837.13;;;4.02;100.00
31346;BME280;21711;49.708;18.568;2023-01-06T04:56:09;97838.09;;;4.08;100.00
31346;BME280;21711;49.708;18.568;2023-01-06T04:58:37;97836.50;;;4.07;100.00
31346;BME280;21711;49.708;18.568;2023-01-06T05:01:11;97843.50;;;3.88;100.00
31346;BME280;21711;49.708;18.568;2023-01-06T05:03:40;97837.31;;;3.82;100.00
31346;BME280;21711;49.708;18.568;2023-01-06T05:06:10;97832.88;;;3.83;100.00
31346;BME280;21711;49.708;18.568;2023-01-06T05:08:39;97835.38;;;3.96;100.00
31346;BME280;21711;49.708;18.568;2023-01-06T05:11:16;97840.56;;;4.03;100.00
31346;BME280;21711;49.708;18.568;2023-01-06T05:13:44;97843.97;;;4.03;100.00
31346;BME280;21711;49.708;18.568;2023-01-06T05:16:27;97844.19;;;4.02;100.00
31346;BME280;21711;49.708;18.568;2023-01-06T05:18:55;97843.19;;;3.77;100.00
31346;BME280;21711;49.708;18.568;2023-01-06T05:21:25;97844.88;;;3.90;100.00
31346;BME280;21711;49.708;18.568;2023-01-06T05:23:54;97845.44;;;3.99;100.00
31346;BME280;21711;49.708;18.568;2023-01-06T05:26:24;97844.31;;;3.88;100.00
31346;BME280;21711;49.708;18.568;2023-01-06T05:28:52;97847.88;;;3.94;100.00
31346;BME280;21711;49.708;18.568;2023-01-06T05:31:20;97843.88;;;3.91;100.00
31346;BME280;21711;49.708;18.568;2023-01-06T05:33:48;97847.56;;;3.84;100.00
31346;BME280;21711;49.708;18.568;2023-01-06T05:36:17;97847.00;;;3.81;100.00
31346;BME280;21711;49.708;18.568;2023-01-06T05:38:50;97857.66;;;3.80;100.00
31346;BME280;21711;49.708;18.568;2023-01-06T05:41:18;97852.84;;;3.77;100.00
31346;BME280;21711;49.708;18.568;2023-01-06T05:43:45;97853.81;;;3.83;100.00
31346;BME280;21711;49.708;18.568;2023-01-06T05:46:12;97862.59;;;3.95;100.00
31346;BME280;21711;49.708;18.568;2023-01-06T05:48:40;97873.41;;;3.99;100.00
31346;BME280;21711;49.708;18.568;2023-01-06T05:51:13;97869.94;;;3.79;100.00
31346;BME280;21711;49.708;18.568;2023-01-06T05:53:44;97870.09;;;3.85;100.00
31346;BME280;21711;49.708;18.568;2023-01-06T05:56:16;97865.81;;;3.90;100.00
31346;BME280;21711;49.708;18.568;2023-01-06T05:58:46;97861.78;;;3.94;100.00
31346;BME280;21711;49.708;18.568;2023-01-06T06:01:23;97864.81;;;3.91;100.00
31346;BME280;21711;49.708;18.568;2023-01-06T06:03:52;97869.94;;;3.79;100.00
31346;BME280;21711;49.708;18.568;2023-01-06T06:06:22;97874.66;;;3.96;100.00
31346;BME280;21711;49.708;18.568;2023-01-06T06:08:50;97871.22;;;3.95;100.00
31346;BME280;21711;49.708;18.568;2023-01-06T06:11:19;97869.50;;;3.83;100.00
31346;BME280;21711;49.708;18.568;2023-01-06T06:13:53;97862.84;;;3.87;100.00
31346;BME280;21711;49.708;18.568;2023-01-06T06:16:24;97869.78;;;4.00;100.00
31346;BME280;21711;49.708;18.568;2023-01-06T06:18:55;97866.28;;;4.06;100.00
31346;BME280;21711;49.708;18.568;2023-01-06T06:21:24;97868.59;;;3.95;100.00
31346;BME280;21711;49.708;18.568;2023-01-06T06:23:54;97873.31;;;3.87;100.00
31346;BME280;21711;49.708;18.568;2023-01-06T06:26:22;97877.16;;;3.84;100.00
31346;BME280;21711;49.708;18.568;2023-01-06T06:28:50;97878.03;;;3.78;100.00
31346;BME280;21711;49.708;18.568;2023-01-06T06:31:25;97878.38;;;4.07;100.00
31346;BME280;21711;49.708;18.568;2023-01-06T06:33:55;97877.63;;;4.00;100.00
31346;BME280;21711;49.708;18.568;2023-01-06T06:36:23;97877.69;;;3.93;100.00
31346;BME280;21711;49.708;18.568;2023-01-06T06:38:52;97883.06;;;3.98;100.00
31346;BME280;21711;49.708;18.568;2023-01-06T06:41:21;97875.44;;;3.97;100.00
31346;BME280;21711;49.708;18.568;2023-01-06T06:43:50;97877.47;;;3.94;100.00
31346;BME280;21711;49.708;18.568;2023-01-06T06:46:18;97875.16;;;3.79;100.00
31346;BME280;21711;49.708;18.568;2023-01-06T06:48:46;97878.06;;;3.71;100.00
31346;BME280;21711;49.708;18.568;2023-01-06T06:51:16;97879.09;;;3.63;100.00
31346;BME280;21711;49.708;18.568;2023-01-06T06:53:45;97886.06;;;3.76;100.00
31346;BME280;21711;49.708;18.568;2023-01-06T06:56:15;97878.91;;;3.90;100.00
31346;BME280;21711;49.708;18.568;2023-01-06T06:58:43;97879.28;;;3.94;100.00
31346;BME280;21711;49.708;18.568;2023-01-06T07:01:16;97890.88;;;4.05;100.00
31346;BME280;21711;49.708;18.568;2023-01-06T07:03:44;97896.88;;;4.12;100.00
31346;BME280;21711;49.708;18.568;2023-01-06T07:06:16;97897.59;;;4.19;100.00
31346;BME280;21711;49.708;18.568;2023-01-06T07:08:45;97896.75;;;4.26;100.00
31346;BME280;21711;49.708;18.568;2023-01-06T07:11:13;97905.19;;;4.28;100.00
31346;BME280;21711;49.708;18.568;2023-01-06T07:13:41;97906.09;;;4.40;100.00
31346;BME280;21711;49.708;18.568;2023-01-06T07:16:09;97909.13;;;4.37;100.00
31346;BME280;21711;49.708;18.568;2023-01-06T07:18:37;97911.94;;;4.36;100.00
31346;BME280;21711;49.708;18.568;2023-01-06T07:21:05;97911.44;;;4.27;100.00
31346;BME280;21711;49.708;18.568;2023-01-06T07:23:33;97911.00;;;4.30;100.00
31346;BME280;21711;49.708;18.568;2023-01-06T07:26:01;97915.44;;;4.29;100.00
31346;BME280;21711;49.708;18.568;2023-01-06T07:28:30;97907.53;;;4.36;100.00
31346;BME280;21711;49.708;18.568;2023-01-06T07:30:58;97918.00;;;4.36;100.00
31346;BME280;21711;49.708;18.568;2023-01-06T07:33:26;97911.63;;;4.51;100.00
31346;BME280;21711;49.708;18.568;2023-01-06T07:35:55;97918.41;;;4.33;100.00
31346;BME280;21711;49.708;18.568;2023-01-06T07:38:23;97924.13;;;4.48;100.00
31346;BME280;21711;49.708;18.568;2023-01-06T07:40:52;97932.94;;;4.54;100.00
31346;BME280;21711;49.708;18.568;2023-01-06T07:43:19;97933.75;;;4.55;100.00
31346;BME280;21711;49.708;18.568;2023-01-06T07:45:47;97918.47;;;4.52;100.00
31346;BME280;21711;49.708;18.568;2023-01-06T07:48:15;97914.66;;;4.47;100.00
31346;BME280;21711;49.708;18.568;2023-01-06T07:50:43;97928.81;;;4.65;100.00
31346;BME280;21711;49.708;18.568;2023-01-06T07:53:11;97927.50;;;4.74;100.00
31346;BME280;21711;49.708;18.568;2023-01-06T07:55:39;97929.25;;;4.81;100.00
31346;BME280;21711;49.708;18.568;2023-01-06T07:58:07;97933.03;;;4.85;100.00
31346;BME280;21711;49.708;18.568;2023-01-06T08:00:36;97927.44;;;4.81;100.00
31346;BME280;21711;49.708;18.568;2023-01-06T08:03:05;97931.16;;;4.92;100.00
31346;BME280;21711;49.708;18.568;2023-01-06T08:05:39;97939.34;;;5.15;100.00
31346;BME280;21711;49.708;18.568;2023-01-06T08:08:10;97939.97;;;5.29;100.00
31346;BME280;21711;49.708;18.568;2023-01-06T08:10:42;97935.59;;;5.41;100.00
31346;BME280;21711;49.708;18.568;2023-01-06T08:13:09;97930.56;;;5.39;100.00
31346;BME280;21711;49.708;18.568;2023-01-06T08:15:37;97930.53;;;5.58;100.00
31346;BME280;21711;49.708;18.568;2023-01-06T08:18:05;97938.72;;;5.92;100.00
31346;BME280;21711;49.708;18.568;2023-01-06T08:20:33;97936.03;;;6.11;100.00
31346;BME280;21711;49.708;18.568;2023-01-06T08:23:01;97938.69;;;6.47;100.00
31346;BME280;21711;49.708;18.568;2023-01-06T08:25:28;97931.09;;;6.75;100.00
31346;BME280;21711;49.708;18.568;2023-01-06T08:27:57;97935.56;;;7.56;100.00
31346;BME280;21711;49.708;18.568;2023-01-06T08:30:26;97933.31;;;7.94;100.00
31346;BME280;21711;49.708;18.568;2023-01-06T08:32:58;97929.84;;;8.62;100.00
31346;BME280;21711;49.708;18.568;2023-01-06T08:35:26;97941.28;;;9.90;100.00
31346;BME280;21711;49.708;18.568;2023-01-06T08:37:54;97947.94;;;10.31;100.00
31346;BME280;21711;49.708;18.568;2023-01-06T08:40:21;97945.94;;;10.43;100.00
31346;BME280;21711;49.708;18.568;2023-01-06T08:42:49;97954.84;;;9.99;100.00
31346;BME280;21711;49.708;18.568;2023-01-06T08:45:16;97952.06;;;9.56;100.00
31346;BME280;21711;49.708;18.568;2023-01-06T08:47:44;97945.13;;;9.22;100.00
31346;BME280;21711;49.708;18.568;2023-01-06T08:50:11;97939.28;;;8.75;100.00
31346;BME280;21711;49.708;18.568;2023-01-06T08:52:38;97932.03;;;8.48;100.00
31346;BME280;21711;49.708;18.568;2023-01-06T08:55:05;97941.31;;;8.16;100.00
31346;BME280;21711;49.708;18.568;2023-01-06T08:57:33;97931.41;;;7.89;100.00
31346;BME280;21711;49.708;18.568;2023-01-06T09:00:03;97932.56;;;7.65;100.00
31346;BME280;21711;49.708;18.568;2023-01-06T09:02:30;97929.22;;;7.69;100.00
31346;BME280;21711;49.708;18.568;2023-01-06T09:04:57;97921.50;;;7.80;100.00
31346;BME280;21711;49.708;18.568;2023-01-06T09:07:25;97927.78;;;7.79;100.00
31346;BME280;21711;49.708;18.568;2023-01-06T09:09:52;97931.16;;;8.08;100.00
31346;BME280;21711;49.708;18.568;2023-01-06T09:12:20;97931.88;;;8.38;100.00
31346;BME280;21711;49.708;18.568;2023-01-06T09:14:47;97930.53;;;8.52;100.00
31346;BME280;21711;49.708;18.568;2023-01-06T09:17:14;97929.19;;;8.15;100.00
31346;BME280;21711;49.708;18.568;2023-01-06T09:19:42;97923.41;;;8.19;100.00
31346;BME280;21711;49.708;18.568;2023-01-06T09:22:09;97918.06;;;7.96;100.00
31346;BME280;21711;49.708;18.568;2023-01-06T09:24:36;97911.69;;;7.75;100.00
31346;BME280;21711;49.708;18.568;2023-01-06T09:27:03;97915.69;;;7.48;100.00
31346;BME280;21711;49.708;18.568;2023-01-06T09:29:31;97904.72;;;7.22;100.00
31346;BME280;21711;49.708;18.568;2023-01-06T09:31:58;97908.22;;;7.57;100.00
31346;BME280;21711;49.708;18.568;2023-01-06T09:34:26;97906.59;;;7.39;100.00
31346;BME280;21711;49.708;18.568;2023-01-06T09:36:53;97902.38;;;7.38;100.00
31346;BME280;21711;49.708;18.568;2023-01-06T09:39:20;97899.38;;;7.46;100.00
31346;BME280;21711;49.708;18.568;2023-01-06T09:42:22;97881.84;;;8.21;100.00
31346;BME280;21711;49.708;18.568;2023-01-06T09:45:00;97878.34;;;8.37;100.00
31346;BME280;21711;49.708;18.568;2023-01-06T09:47:41;97872.91;;;8.44;100.00
31346;BME280;21711;49.708;18.568;2023-01-06T09:50:37;97870.06;;;8.28;100.00
31346;BME280;21711;49.708;18.568;2023-01-06T09:53:15;97871.28;;;8.21;100.00
31346;BME280;21711;49.708;18.568;2023-01-06T09:55:52;97880.56;;;8.23;100.00
31346;BME280;21711;49.708;18.568;2023-01-06T09:59:13;97871.31;;;8.43;100.00
31346;BME280;21711;49.708;18.568;2023-01-06T10:01:28;97860.16;;;8.36;100.00
31346;BME280;21711;49.708;18.568;2023-01-06T10:03:57;97864.59;;;7.96;100.00
31346;BME280;21711;49.708;18.568;2023-01-06T10:15:31;97826.09;;;8.12;100.00
31346;BME280;21711;49.708;18.568;2023-01-06T10:18:23;97831.56;;;8.45;100.00
31346;BME280;21711;49.708;18.568;2023-01-06T10:21:09;97827.47;;;8.76;100.00
31346;BME280;21711;49.708;18.568;2023-01-06T10:26:58;97819.13;;;8.85;100.00
31346;BME280;21711;49.708;18.568;2023-01-06T10:29:33;97819.72;;;9.19;100.00
31346;BME280;21711;49.708;18.568;2023-01-06T10:32:02;97807.06;;;9.49;100.00
31346;BME280;21711;49.708;18.568;2023-01-06T10:34:33;97806.06;;;9.28;100.00
31346;BME280;21711;49.708;18.568;2023-01-06T10:39:47;97799.84;;;9.12;100.00
31346;BME280;21711;49.708;18.568;2023-01-06T10:45:46;97805.50;;;9.20;100.00
31346;BME280;21711;49.708;18.568;2023-01-06T10:48:18;97802.84;;;9.53;100.00
31346;BME280;21711;49.708;18.568;2023-01-06T10:50:47;97803.47;;;9.60;100.00
31346;BME280;21711;49.708;18.568;2023-01-06T10:53:15;97800.44;;;9.46;100.00
31346;BME280;21711;49.708;18.568;2023-01-06T10:58:59;97810.22;;;9.84;100.00
31346;BME280;21711;49.708;18.568;2023-01-06T11:01:29;97801.19;;;10.18;100.00
31346;BME280;21711;49.708;18.568;2023-01-06T11:04:13;97804.06;;;10.64;100.00
31346;BME280;21711;49.708;18.568;2023-01-06T11:06:52;97799.38;;;10.98;100.00
31346;BME280;21711;49.708;18.568;2023-01-06T11:09:42;97808.16;;;11.55;100.00
31346;BME280;21711;49.708;18.568;2023-01-06T11:14:58;97797.56;;;11.50;100.00
31346;BME280;21711;49.708;18.568;2023-01-06T11:17:27;97783.50;;;11.50;100.00
31346;BME280;21711;49.708;18.568;2023-01-06T11:22:41;97787.50;;;11.68;100.00
31346;BME280;21711;49.708;18.568;2023-01-06T11:25:27;97787.97;;;11.86;98.44
31346;BME280;21711;49.708;18.568;2023-01-06T11:28:19;97787.75;;;11.30;100.00
31346;BME280;21711;49.708;18.568;2023-01-06T11:30:54;97784.28;;;10.98;100.00
31346;BME280;21711;49.708;18.568;2023-01-06T11:33:26;97786.53;;;10.48;97.36
31346;BME280;21711;49.708;18.568;2023-01-06T11:35:55;97780.06;;;10.28;97.12
31346;BME280;21711;49.708;18.568;2023-01-06T11:38:23;97782.22;;;9.83;100.00
31346;BME280;21711;49.708;18.568;2023-01-06T11:40:52;97788.63;;;9.97;100.00
31346;BME280;21711;49.708;18.568;2023-01-06T11:43:24;97783.81;;;9.84;100.00
31346;BME280;21711;49.708;18.568;2023-01-06T11:45:59;97775.63;;;9.47;100.00
31346;BME280;21711;49.708;18.568;2023-01-06T11:48:55;97790.59;;;9.74;100.00
31346;BME280;21711;49.708;18.568;2023-01-06T11:54:31;97792.50;;;9.46;100.00
31346;BME280;21711;49.708;18.568;2023-01-06T11:57:24;97788.94;;;9.30;100.00
31346;BME280;21711;49.708;18.568;2023-01-06T12:06:10;97772.47;;;8.40;100.00
31346;BME280;21711;49.708;18.568;2023-01-06T12:11:55;97758.78;;;8.21;100.00
31346;BME280;21711;49.708;18.568;2023-01-06T12:14:27;97752.09;;;8.13;100.00
31346;BME280;21711;49.708;18.568;2023-01-06T12:17:27;97751.75;;;8.05;100.00
31346;BME280;21711;49.708;18.568;2023-01-06T12:20:10;97739.97;;;7.90;100.00
31346;BME280;21711;49.708;18.568;2023-01-06T12:23:05;97735.59;;;7.79;100.00
31346;BME280;21711;49.708;18.568;2023-01-06T12:25:44;97736.25;;;7.69;100.00
31346;BME280;21711;49.708;18.568;2023-01-06T12:28:24;97729.66;;;7.49;100.00
31346;BME280;21711;49.708;18.568;2023-01-06T12:31:25;97728.53;;;7.62;100.00
31346;BME280;21711;49.708;18.568;2023-01-06T12:34:06;97732.44;;;7.99;100.00
31346;BME280;21711;49.708;18.568;2023-01-06T12:37:25;97726.28;;;8.10;100.00
31346;BME280;21711;49.708;18.568;2023-01-06T12:43:01;97733.28;;;8.49;100.00
31346;BME280;21711;49.708;18.568;2023-01-06T12:46:10;97738.31;;;8.51;100.00
31346;BME280;21711;49.708;18.568;2023-01-06T12:48:55;97741.63;;;8.41;100.00
31346;BME280;21711;49.708;18.568;2023-01-06T12:51:37;97731.72;;;8.26;100.00
31346;BME280;21711;49.708;18.568;2023-01-06T12:54:33;97723.81;;;8.03;100.00
31346;BME280;21711;49.708;18.568;2023-01-06T13:00:15;97707.75;;;8.05;100.00
31346;BME280;21711;49.708;18.568;2023-01-06T13:06:12;97694.59;;;8.27;100.00
31346;BME280;21711;49.708;18.568;2023-01-06T13:09:13;97706.22;;;8.32;100.00
31346;BME280;21711;49.708;18.568;2023-01-06T13:14:58;97689.34;;;7.88;100.00
31346;BME280;21711;49.708;18.568;2023-01-06T13:20:03;97693.97;;;7.98;100.00
31346;BME280;21711;49.708;18.568;2023-01-06T13:26:08;97680.91;;;8.08;100.00
31346;BME280;21711;49.708;18.568;2023-01-06T13:37:35;97671.59;;;8.23;100.00
31346;BME280;21711;49.708;18.568;2023-01-06T13:40:14;97655.13;;;7.88;100.00
31346;BME280;21711;49.708;18.568;2023-01-06T13:42:57;97662.66;;;8.01;100.00
31346;BME280;21711;49.708;18.568;2023-01-06T13:45:43;97659.50;;;7.99;100.00
31346;BME280;21711;49.708;18.568;2023-01-06T13:48:20;97653.59;;;7.92;100.00
31346;BME280;21711;49.708;18.568;2023-01-06T13:50:49;97640.25;;;7.76;100.00
31346;BME280;21711;49.708;18.568;2023-01-06T13:53:20;97630.56;;;7.60;100.00
31346;BME280;21711;49.708;18.568;2023-01-06T13:58:46;97634.38;;;7.69;100.00
31346;BME280;21711;49.708;18.568;2023-01-06T14:03:48;97632.41;;;7.59;100.00
31346;BME280;21711;49.708;18.568;2023-01-06T14:08:57;97617.41;;;7.20;100.00
31346;BME280;21711;49.708;18.568;2023-01-06T14:11:28;97626.41;;;7.24;100.00
31346;BME280;21711;49.708;18.568;2023-01-06T14:14:19;97623.84;;;7.30;100.00
31346;BME280;21711;49.708;18.568;2023-01-06T14:16:56;97629.13;;;7.30;100.00
31346;BME280;21711;49.708;18.568;2023-01-06T14:19:36;97616.94;;;7.23;100.00
31346;BME280;21711;49.708;18.568;2023-01-06T14:22:23;97624.50;;;7.20;100.00
31346;BME280;21711;49.708;18.568;2023-01-06T14:25:00;97624.84;;;7.23;100.00
31346;BME280;21711;49.708;18.568;2023-01-06T14:30:26;97631.06;;;7.00;100.00
31346;BME280;21711;49.708;18.568;2023-01-06T14:33:29;97632.50;;;6.91;100.00
31346;BME280;21711;49.708;18.568;2023-01-06T14:36:14;97628.28;;;6.90;100.00
31346;BME280;21711;49.708;18.568;2023-01-06T14:38:55;97628.66;;;6.81;100.00
31346;BME280;21711;49.708;18.568;2023-01-06T14:42:31;97619.19;;;6.80;100.00
31346;BME280;21711;49.708;18.568;2023-01-06T14:45:29;97624.22;;;6.65;100.00
31346;BME280;21711;49.708;18.568;2023-01-06T14:48:12;97617.59;;;6.45;100.00
31346;BME280;21711;49.708;18.568;2023-01-06T14:50:48;97625.75;;;6.31;100.00
31346;BME280;21711;49.708;18.568;2023-01-06T14:53:38;97623.59;;;6.28;100.00
31346;BME280;21711;49.708;18.568;2023-01-06T14:56:27;97628.00;;;6.40;100.00
31346;BME280;21711;49.708;18.568;2023-01-06T15:01:40;97618.78;;;6.54;100.00
31346;BME280;21711;49.708;18.568;2023-01-06T15:04:28;97614.25;;;6.67;100.00
31346;BME280;21711;49.708;18.568;2023-01-06T15:07:17;97614.31;;;6.72;100.00
31346;BME280;21711;49.708;18.568;2023-01-06T15:09:48;97610.59;;;6.68;100.00
31346;BME280;21711;49.708;18.568;2023-01-06T15:12:27;97614.81;;;6.69;100.00
31346;BME280;21711;49.708;18.568;2023-01-06T15:14:56;97619.75;;;6.65;100.00
31346;BME280;21711;49.708;18.568;2023-01-06T15:17:40;97615.81;;;6.51;100.00
31346;BME280;21711;49.708;18.568;2023-01-06T15:20:12;97617.91;;;6.66;100.00
31346;BME280;21711;49.708;18.568;2023-01-06T15:22:40;97619.69;;;6.77;100.00